Home > Products > Valid Products > MTR

000
SAUS43 KMQT 020357
MTRP53
METAR KP53 020356Z AUTO 21005KT 18/12 A2974 RMK AO1 SLP070 T01780122





000
SAUS43 KMQT 020354
MTRP59
METAR KP59 020351Z AUTO 26008G15KT 22/09 A2967 RMK AO1 SLP039
T02170094





000
SAUS43 KMQT 020257
MTRP53
METAR KP53 020256Z AUTO 21005KT 18/13 A2976 RMK AO1 SLP075 T01830128
58008





000
SAUS43 KMQT 020257
MTRP53
METAR KP53 020256Z AUTO 21005KT 18/13 A2976 RMK AO1 SLP075 T01830128
58008





000
SAUS43 KMQT 020254
MTRP59
METAR KP59 020251Z AUTO VRB03KT 22/09 A2969 RMK AO1 SLP047 T02170094
56010





000
SAUS43 KMQT 020157
MTRP53
METAR KP53 020156Z AUTO 18004KT 18/13 A2977 RMK AO1 SLP081 T01830133





000
SAUS43 KMQT 020152
MTRP59
METAR KP59 020151Z AUTO VRB05KT 22/09 A2970 RMK AO1 SLP051 T02220094





000
SAUS43 KMQT 020058
MTRP53
METAR KP53 020056Z AUTO 00000KT 22/13 A2977 RMK AO1 SLP080 T02170128





000
SAUS43 KMQT 020058
MTRP53
METAR KP53 020056Z AUTO 00000KT 22/13 A2977 RMK AO1 SLP080 T02170128





000
SAUS43 KMQT 020054
MTRP59
METAR KP59 020051Z AUTO 27009G15KT 240V300 23/09 A2971 RMK AO1
SLP055 T02280094





000
SAUS43 KMQT 020054
MTRP59
METAR KP59 020051Z AUTO 27009G15KT 240V300 23/09 A2971 RMK AO1
SLP055 T02280094





000
SAUS43 KMQT 012357
MTRP53
METAR KP53 012356Z AUTO 00000KT 23/14 A2978 RMK AO1 SLP084 T02280144
10239 20228 58009





000
SAUS43 KMQT 012357
MTRP53
METAR KP53 012356Z AUTO 00000KT 23/14 A2978 RMK AO1 SLP084 T02280144
10239 20228 58009





000
SAUS43 KMQT 012354
MTRP59
METAR KP59 012351Z AUTO 28007G15KT 250V310 23/10 A2972 RMK AO1
SLP058 T02330100 10256 20211 58016





000
SAUS43 KMQT 012354
MTRP59
METAR KP59 012351Z AUTO 28007G15KT 250V310 23/10 A2972 RMK AO1
SLP058 T02330100 10256 20211 58016





000
SAUS43 KMQT 012257
MTRP53
METAR KP53 012256Z AUTO 02003KT 23/17 A2980 RMK AO1 SLP089 T02330167





000
SAUS43 KMQT 012257
MTRP53
METAR KP53 012256Z AUTO 02003KT 23/17 A2980 RMK AO1 SLP089 T02330167





000
SAUS43 KMQT 012254
MTRP59
METAR KP59 012251Z AUTO VRB04KT 24/10 A2975 RMK AO1 SLP066 T02440100





000
SAUS43 KMQT 012157
MTRP53
METAR KP53 012156Z AUTO 03005KT 24/17 A2980 RMK AO1 SLP091 T02390167





000
SAUS43 KMQT 012152
MTRP59
METAR KP59 012151Z AUTO 32008G20KT 260V350 24/11 A2976 RMK AO1
SLP068 T02440106





000
SAUS43 KMQT 012057
MTRP53
METAR KP53 012056Z AUTO 05007KT 23/16 A2981 RMK AO1 SLP094 T02330156
58013





000
SAUS43 KMQT 012057
MTRP53
METAR KP53 012056Z AUTO 05007KT 23/16 A2981 RMK AO1 SLP094 T02330156
58013





000
SAUS43 KMQT 012054
MTRP59
METAR KP59 012051Z AUTO 30007G20KT 240V030 25/11 A2977 RMK AO1
SLP074 T02500111 58013





000
SAUS43 KMQT 012054
MTRP59
METAR KP59 012051Z AUTO 30007G20KT 240V030 25/11 A2977 RMK AO1
SLP074 T02500111 58013





000
SAUS43 KMQT 011957
MTRP53
METAR KP53 011956Z AUTO 05005KT 23/16 A2983 RMK AO1 SLP100 T02330156





000
SAUS43 KMQT 011954
MTRP59
METAR KP59 011951Z AUTO 34014G20KT 24/14 A2979 RMK AO1 SLP080
T02390144





000
SAUS43 KMQT 011954
MTRP59
METAR KP59 011951Z AUTO 34014G20KT 24/14 A2979 RMK AO1 SLP080
T02390144





000
SAUS43 KMQT 011857
MTRP53
METAR KP53 011856Z AUTO 05005KT 23/16 A2984 RMK AO1 SLP103 T02330156





000
SAUS43 KMQT 011857
MTRP53
METAR KP53 011856Z AUTO 05005KT 23/16 A2984 RMK AO1 SLP103 T02330156





000
SAUS43 KMQT 011854
MTRP59
METAR KP59 011851Z AUTO 35014KT 21/16 A2980 RMK AO1 SLP085 T02110156





000
SAUS43 KMQT 011854
MTRP59
METAR KP59 011851Z AUTO 35014KT 21/16 A2980 RMK AO1 SLP085 T02110156





000
SAUS43 KMQT 011757
MTRP53
METAR KP53 011756Z AUTO 34007KT 23/14 A2985 RMK AO1 SLP107 T02280139
10239 20161 58000





000
SAUS43 KMQT 011757
MTRP53
METAR KP53 011756Z AUTO 34007KT 23/14 A2985 RMK AO1 SLP107 T02280139
10239 20161 58000





000
SAUS43 KMQT 011753
MTRP59
METAR KP59 011751Z AUTO 35016KT 21/16 A2981 RMK AO1 SLP088 T02110156
10222 20189 58006





000
SAUS43 KMQT 011657
MTRP53
METAR KP53 011656Z AUTO 35008KT 23/14 A2986 RMK AO1 SLP109 T02280139





000
SAUS43 KMQT 011654
MTRP59
METAR KP59 011651Z AUTO 36014KT 21/14 A2982 RMK AO1 SLP093 T02110144





000
SAUS43 KMQT 011557
MTRP53
METAR KP53 011556Z AUTO 34008KT 22/13 A2985 RMK AO1 SLP109 T02220133





000
SAUS43 KMQT 011554
MTRP59
METAR KP59 011551Z AUTO 35013KT 21/13 A2983 RMK AO1 SLP096 T02110133





000
SAUS43 KMQT 011457
MTRP53
METAR KP53 011456Z AUTO 33012KT 22/13 A2985 RMK AO1 SLP108 T02170133
53005





000
SAUS43 KMQT 011457
MTRP53
METAR KP53 011456Z AUTO 33012KT 22/13 A2985 RMK AO1 SLP108 T02170133
53005





000
SAUS43 KMQT 011454
MTRP59
METAR KP59 011451Z AUTO 35012G17KT 21/13 A2983 RMK AO1 SLP095
T02110128 50002





000
SAUS43 KMQT 011454
MTRP59
METAR KP59 011451Z AUTO 35012G17KT 21/13 A2983 RMK AO1 SLP095
T02110128 50002





000
SAUS43 KMQT 011357
MTRP53
METAR KP53 011356Z AUTO 33009KT 22/13 A2985 RMK AO1 SLP105 T02170133





000
SAUS43 KMQT 011354
MTRP59
METAR KP59 011351Z AUTO 34013G20KT 20/13 A2983 RMK AO1 SLP096
T02000128





000
SAUS43 KMQT 011354
MTRP59
METAR KP59 011351Z AUTO 34013G20KT 20/13 A2983 RMK AO1 SLP096
T02000128





000
SAUS43 KMQT 011257
MTRP53
METAR KP53 011256Z AUTO 32005KT 20/14 A2984 RMK AO1 SLP103 T02000139





000
SAUS43 KMQT 011254
MTRP59
METAR KP59 011251Z AUTO 34012G19KT 19/12 A2982 RMK AO1 SLP093
T01940122





000
SAUS43 KMQT 011254
MTRP59
METAR KP59 011251Z AUTO 34012G19KT 19/12 A2982 RMK AO1 SLP093
T01940122





000
SAUS43 KMQT 011158
MTRP53
METAR KP53 011156Z AUTO 00000KT 16/13 A2984 RMK AO1 SLP102 T01610128
10189 20133 53003





000
SAUS43 KMQT 011158
MTRP53
METAR KP53 011156Z AUTO 00000KT 16/13 A2984 RMK AO1 SLP102 T01610128
10189 20133 53003





000
SAUS43 KMQT 011154
MTRP59
METAR KP59 011151Z AUTO 33009KT 19/11 A2982 RMK AO1 SLP092 T01890111
10189 20172 53006





000
SAUS43 KMQT 011057
MTRP53
METAR KP53 011056Z AUTO 19004KT 14/12 A2983 RMK AO1 SLP100 T01440117





000
SAUS43 KMQT 011057
MTRP53
METAR KP53 011056Z AUTO 19004KT 14/12 A2983 RMK AO1 SLP100 T01440117





000
SAUS43 KMQT 011054
MTRP59
METAR KP59 011051Z AUTO VRB04KT 18/12 A2981 RMK AO1 SLP090 T01780117





000
SAUS43 KMQT 011054
MTRP59
METAR KP59 011051Z AUTO VRB04KT 18/12 A2981 RMK AO1 SLP090 T01780117





000
SAUS43 KMQT 010957
MTRP53
METAR KP53 010956Z AUTO 19005KT 14/11 A2983 RMK AO1 SLP101 T01390111





000
SAUS43 KMQT 010954
MTRP59
METAR KP59 010951Z AUTO 33007KT 280V360 18/11 A2981 RMK AO1 SLP087
T01830106





000
SAUS43 KMQT 010857
MTRP53
METAR KP53 010856Z AUTO 18005KT 14/11 A2983 RMK AO1 SLP100 T01390111
55002





000
SAUS43 KMQT 010857
MTRP53
METAR KP53 010856Z AUTO 18005KT 14/11 A2983 RMK AO1 SLP100 T01390111
55002





000
SAUS43 KMQT 010852
MTRP59
METAR KP59 010851Z AUTO VRB06KT 17/11 A2980 RMK AO1 SLP086 T01720111
50000





000
SAUS43 KMQT 010852
MTRP59
METAR KP59 010851Z AUTO VRB06KT 17/11 A2980 RMK AO1 SLP086 T01720111
50000





000
SAUS43 KMQT 010757
MTRP53
METAR KP53 010756Z AUTO 17006KT 14/11 A2982 RMK AO1 SLP099 T01390111





000
SAUS43 KMQT 010757
MTRP53
METAR KP53 010756Z AUTO 17006KT 14/11 A2982 RMK AO1 SLP099 T01390111





000
SAUS43 KMQT 010753
MTRP59
METAR KP59 010751Z AUTO 34006KT 18/12 A2981 RMK AO1 SLP089 T01780117





000
SAUS43 KMQT 010703 COR
MTRP53
METAR KP53 010656Z AUTO 15006KT 14/11 A2983 RMK AO1 SLP100 T01390111





000
SAUS43 KMQT 010703 COR
MTRP53
METAR KP53 010656Z AUTO 15006KT 14/11 A2983 RMK AO1 SLP100 T01390111





000
SAUS43 KMQT 010653
MTRP59
METAR KP59 010651Z AUTO 34013G18KT 18/12 A2981 RMK AO1 SLP088
T01830122





000
SAUS43 KMQT 010557
MTRP53
METAR KP53 010556Z AUTO 25005KT 17/11 A2983 RMK AO1 SLP102 T01720111
10217 20150 58002





000
SAUS43 KMQT 010557
MTRP53
METAR KP53 010556Z AUTO 25005KT 17/11 A2983 RMK AO1 SLP102 T01720111
10217 20150 58002





000
SAUS43 KMQT 010554
MTRP59
METAR KP59 010551Z AUTO VRB05KT 18/12 A2980 RMK AO1 SLP086 T01830122
10217 20183 58003





000
SAUS43 KMQT 010457
MTRP53
METAR KP53 010456Z AUTO 22004KT 16/12 A2984 RMK AO1 SLP102 T01560117
402280150





000
SAUS43 KMQT 010457
MTRP53
METAR KP53 010456Z AUTO 22004KT 16/12 A2984 RMK AO1 SLP102 T01560117
402280150





000
SAUS43 KMQT 010453
MTRP59
METAR KP59 010451Z AUTO 34010KT 18/12 A2981 RMK AO1 SLP088 T01830122
402280172





000
SAUS43 KMQT 010357
MTRP53
METAR KP53 010356Z AUTO 17004KT 15/12 A2984 RMK AO1 SLP104 T01500122





000
SAUS43 KMQT 010354
MTRP59
METAR KP59 010351Z AUTO 34012G17KT 19/12 A2981 RMK AO1 SLP090
T01890117





000
SAUS43 KMQT 010257
MTRP53
METAR KP53 010256Z AUTO 18004KT 16/12 A2984 RMK AO1 SLP104 T01610122
52003





000
SAUS43 KMQT 010257
MTRP53
METAR KP53 010256Z AUTO 18004KT 16/12 A2984 RMK AO1 SLP104 T01610122
52003





000
SAUS43 KMQT 010256 COR
MTRP59
METAR KP59 010251Z AUTO VRB05KT 18/12 A2981 RMK AO1 SLP089 T01830117
51002





000
SAUS43 KMQT 010157
MTRP53
METAR KP53 010156Z AUTO 03003KT 19/13 A2984 RMK AO1 SLP102 T01940128





000
SAUS43 KMQT 010154
MTRP59
METAR KP59 010151Z AUTO 34013G22KT 20/11 A2981 RMK AO1 SLP089
T02000111





000
SAUS43 KMQT 010154
MTRP59
METAR KP59 010151Z AUTO 34013G22KT 20/11 A2981 RMK AO1 SLP089
T02000111





000
SAUS43 KMQT 010057
MTRP53
METAR KP53 010056Z AUTO 35006KT 20/13 A2983 RMK AO1 SLP101 T02000128





000
SAUS43 KMQT 010053
MTRP59
METAR KP59 010051Z AUTO 33007KT 280V350 20/12 A2981 RMK AO1 SLP089
T02000117





000
SAUS43 KMQT 312357
MTRP53
METAR KP53 312356Z AUTO 35007KT 22/13 A2983 RMK AO1 SLP100 T02170133
10228 20211 58003





000
SAUS43 KMQT 312357
MTRP53
METAR KP53 312356Z AUTO 35007KT 22/13 A2983 RMK AO1 SLP100 T02170133
10228 20211 58003





000
SAUS43 KMQT 312354
MTRP59
METAR KP59 312351Z AUTO 33012G20KT 22/12 A2981 RMK AO1 SLP087
T02170117 10228 20200 57005





000
SAUS43 KMQT 312257
MTRP53
METAR KP53 312256Z AUTO 33010G19KT 22/13 A2984 RMK AO1 SLP104
T02170128





000
SAUS43 KMQT 312257
MTRP53
METAR KP53 312256Z AUTO 33010G19KT 22/13 A2984 RMK AO1 SLP104
T02170128





000
SAUS43 KMQT 312254
MTRP59
METAR KP59 312251Z AUTO 32009G19KT 280V360 21/12 A2981 RMK AO1
SLP088 T02060117





000
SAUS43 KMQT 312254
MTRP59
METAR KP59 312251Z AUTO 32009G19KT 280V360 21/12 A2981 RMK AO1
SLP088 T02060117





000
SAUS43 KMQT 312157
MTRP53
METAR KP53 312156Z AUTO 34013G19KT 22/13 A2984 RMK AO1 SLP103
T02170133





000
SAUS43 KMQT 312153
MTRP59
METAR KP59 312151Z AUTO 34013G23KT 23/11 A2982 RMK AO1 PK WND
33026/2120 SLP091 T02280111





000
SAUS43 KMQT 312057
MTRP53
METAR KP53 312056Z AUTO 32012G20KT 21/14 A2984 RMK AO1 SLP104
T02110139 50003





000
SAUS43 KMQT 312057
MTRP53
METAR KP53 312056Z AUTO 32012G20KT 21/14 A2984 RMK AO1 SLP104
T02110139 50003





000
SAUS43 KMQT 312054
MTRP59
METAR KP59 312051Z AUTO 34016G23KT 22/12 A2982 RMK AO1 SLP091
T02220117 56005





000
SAUS43 KMQT 311957
MTRP53
METAR KP53 311956Z AUTO 35012G18KT 22/14 A2984 RMK AO1 SLP104
T02170144





000
SAUS43 KMQT 311954
MTRP59
METAR KP59 311951Z AUTO 34014G24KT 22/12 A2983 RMK AO1 SLP095
T02170122





000
SAUS43 KMQT 311954
MTRP59
METAR KP59 311951Z AUTO 34014G24KT 22/12 A2983 RMK AO1 SLP095
T02170122





000
SAUS43 KMQT 311857
MTRP53
METAR KP53 311856Z AUTO 34011G22KT 22/14 A2984 RMK AO1 SLP103
T02220139





000
SAUS43 KMQT 311857
MTRP53
METAR KP53 311856Z AUTO 34011G22KT 22/14 A2984 RMK AO1 SLP103
T02220139





000
SAUS43 KMQT 311853
MTRP59
METAR KP59 311851Z AUTO 35015G23KT 21/13 A2983 RMK AO1 SLP094
T02060128





000
SAUS43 KMQT 311758
MTRP53
METAR KP53 311756Z AUTO 35013KT 22/14 A2983 RMK AO1 SLP101 T02220139
10228 20200 58001





000
SAUS43 KMQT 311754
MTRP59
METAR KP59 311751Z AUTO 35015G26KT 20/13 A2984 RMK AO1 PK WND
35026/1743 SLP098 T02000128 10206 20183 50007





000
SAUS43 KMQT 311657
MTRP53
METAR KP53 311656Z AUTO 36011KT 23/13 A2984 RMK AO1 SLP102 T02280133





000
SAUS43 KMQT 311657
MTRP53
METAR KP53 311656Z AUTO 36011KT 23/13 A2984 RMK AO1 SLP102 T02280133





000
SAUS43 KMQT 311654
MTRP59
METAR KP59 311651Z AUTO 34011G20KT 19/13 A2984 RMK AO1 SLP101
T01940128





000
SAUS43 KMQT 311557
MTRP53
METAR KP53 311556Z AUTO 33016G20KT 22/13 A2984 RMK AO1 SLP104
T02220133





000
SAUS43 KMQT 311554
MTRP59
METAR KP59 311551Z AUTO 34012KT 20/13 A2983 RMK AO1 SLP096 T02000128





000
SAUS43 KMQT 311457
MTRP53
METAR KP53 311456Z AUTO 33017G23KT 22/13 A2984 RMK AO1 PK WND
32026/1409 SLP102 T02170128 51006





000
SAUS43 KMQT 311454
MTRP59
METAR KP59 311451Z AUTO 35011G20KT 20/12 A2981 RMK AO1 SLP090
T02000122 50002





000
SAUS43 KMQT 311454
MTRP59
METAR KP59 311451Z AUTO 35011G20KT 20/12 A2981 RMK AO1 SLP090
T02000122 50002





000
SAUS43 KMQT 311358
MTRP53
METAR KP53 311356Z AUTO 33013G23KT 22/13 A2983 RMK AO1 SLP101
T02170133





000
SAUS43 KMQT 311354
MTRP59
METAR KP59 311351Z AUTO 33008G18KT 19/12 A2982 RMK AO1 SLP092
T01890117





000
SAUS43 KMQT 311257
MTRP53
METAR KP53 311256Z AUTO 30004KT 21/13 A2983 RMK AO1 SLP098 T02060133





000
SAUS43 KMQT 311254
MTRP59
METAR KP59 311251Z AUTO 34010G18KT 19/12 A2982 RMK AO1 SLP092
T01890117





000
SAUS43 KMQT 311157
MTRP53
METAR KP53 311156Z AUTO 28007KT 21/13 A2982 RMK AO1 SLP095 T02060128
10211 20183 53004





000
SAUS43 KMQT 311157
MTRP53
METAR KP53 311156Z AUTO 28007KT 21/13 A2982 RMK AO1 SLP095 T02060128
10211 20183 53004





000
SAUS43 KMQT 311152
MTRP59
METAR KP59 311151Z AUTO 33010G17KT 18/12 A2981 RMK AO1 SLP088
T01830117 10189 20172 53006





000
SAUS43 KMQT 311057
MTRP53
METAR KP53 311056Z AUTO 26008KT 19/13 A2981 RMK AO1 SLP091 T01940128





000
SAUS43 KMQT 311057
MTRP53
METAR KP53 311056Z AUTO 26008KT 19/13 A2981 RMK AO1 SLP091 T01940128





000
SAUS43 KMQT 311053
MTRP59
METAR KP59 311051Z AUTO 33009KT 18/11 A2979 RMK AO1 SLP081 T01830111





000
SAUS43 KMQT 310958
MTRP53
METAR KP53 310956Z AUTO 25007KT 19/13 A2980 RMK AO1 SLP090 T01940133





000
SAUS43 KMQT 310952
MTRP59
METAR KP59 310951Z AUTO 33006KT 18/12 A2978 RMK AO1 SLP076 T01830117





000
SAUS43 KMQT 310857
MTRP53
METAR KP53 310856Z AUTO 24007KT 19/13 A2981 RMK AO1 SLP092 T01890133
56008





000
SAUS43 KMQT 310854
MTRP59
METAR KP59 310851Z AUTO 33008G21KT 18/12 A2979 RMK AO1 SLP080
T01830117 55002





000
SAUS43 KMQT 310854
MTRP59
METAR KP59 310851Z AUTO 33008G21KT 18/12 A2979 RMK AO1 SLP080
T01830117 55002





000
SAUS43 KMQT 310757
MTRP53
METAR KP53 310756Z AUTO 23007KT 19/14 A2981 RMK AO1 SLP093 T01890139





000
SAUS43 KMQT 310754
MTRP59
METAR KP59 310751Z AUTO VRB06G14KT 18/12 A2978 RMK AO1 SLP077
T01830117





000
SAUS43 KMQT 310657
MTRP53
METAR KP53 310656Z AUTO 15003KT 18/14 A2981 RMK AO1 SLP094 T01830139





000
SAUS43 KMQT 310657
MTRP53
METAR KP53 310656Z AUTO 15003KT 18/14 A2981 RMK AO1 SLP094 T01830139





000
SAUS43 KMQT 310652
MTRP59
METAR KP59 310651Z AUTO 31007KT 18/12 A2979 RMK AO1 SLP081 T01780117





000
SAUS43 KMQT 310652
MTRP59
METAR KP59 310651Z AUTO 31007KT 18/12 A2979 RMK AO1 SLP081 T01780117





000
SAUS43 KMQT 310557
MTRP53
METAR KP53 310556Z AUTO VRB06KT 21/14 A2983 RMK AO1 SLP100 T02110139
10228 20194 55007





000
SAUS43 KMQT 310557
MTRP53
METAR KP53 310556Z AUTO VRB06KT 21/14 A2983 RMK AO1 SLP100 T02110139
10228 20194 55007





000
SAUS43 KMQT 310554
MTRP59
METAR KP59 310551Z AUTO 29006KT 18/12 A2979 RMK AO1 SLP082 T01830117
10217 20167 56018





000
SAUS43 KMQT 310554
MTRP59
METAR KP59 310551Z AUTO 29006KT 18/12 A2979 RMK AO1 SLP082 T01830117
10217 20167 56018





000
SAUS43 KMQT 310457
MTRP53
METAR KP53 310456Z AUTO 22007KT 20/13 A2983 RMK AO1 SLP099 T02000128
402440189





000
SAUS43 KMQT 310454
MTRP59
METAR KP59 310451Z AUTO 29006KT 18/12 A2980 RMK AO1 SLP087 T01780117
402610167





000
SAUS43 KMQT 310454
MTRP59
METAR KP59 310451Z AUTO 29006KT 18/12 A2980 RMK AO1 SLP087 T01780117
402610167





000
SAUS43 KMQT 310404 COR
MTRP53
METAR KP53 310356Z AUTO 22007KT 21/12 A2985 RMK AO1 SLP105 T02110122





000
SAUS43 KMQT 310354
MTRP59
METAR KP59 310351Z AUTO VRB06KT 17/13 A2982 RMK AO1 SLP092 T01670133





000
SAUS43 KMQT 310354
MTRP59
METAR KP59 310351Z AUTO VRB06KT 17/13 A2982 RMK AO1 SLP092 T01670133





000
SAUS43 KMQT 310257
MTRP53
METAR KP53 310256Z AUTO 24005KT 23/12 A2985 RMK AO1 SLP108 T02280122
55000





000
SAUS43 KMQT 310257
MTRP53
METAR KP53 310256Z AUTO 24005KT 23/12 A2985 RMK AO1 SLP108 T02280122
55000





000
SAUS43 KMQT 310254
MTRP59
METAR KP59 310251Z AUTO 34015G22KT 19/14 A2985 RMK AO1 PK WND
35027/0244 SLP102 T01890144 53008





000
SAUS43 KMQT 310254
MTRP59
METAR KP59 310251Z AUTO 34015G22KT 19/14 A2985 RMK AO1 PK WND
35027/0244 SLP102 T01890144 53008





000
SAUS43 KMQT 310157
MTRP53
METAR KP53 310156Z AUTO 19005KT 20/14 A2985 RMK AO1 SLP105 T02000139





000
SAUS43 KMQT 310153
MTRP59
METAR KP59 310151Z AUTO VRB03KT 21/12 A2981 RMK AO1 SLP091 T02060117





000
SAUS43 KMQT 310153
MTRP59
METAR KP59 310151Z AUTO VRB03KT 21/12 A2981 RMK AO1 SLP091 T02060117





000
SAUS43 KMQT 310057
MTRP53
METAR KP53 310056Z AUTO 00000KT 22/14 A2985 RMK AO1 SLP105 T02220139





000
SAUS43 KMQT 310053
MTRP59
METAR KP59 310051Z AUTO 30007KT 270V340 21/12 A2981 RMK AO1 SLP090
T02110122





000
SAUS43 KMQT 302357
MTRP53
METAR KP53 302356Z AUTO 00000KT 22/14 A2986 RMK AO1 SLP108 T02220144
10244 20217 58006





000
SAUS43 KMQT 302357
MTRP53
METAR KP53 302356Z AUTO 00000KT 22/14 A2986 RMK AO1 SLP108 T02220144
10244 20217 58006





000
SAUS43 KMQT 302354
MTRP59
METAR KP59 302351Z AUTO 34014G25KT 22/13 A2983 RMK AO1 PK WND
35027/2335 SLP093 T02170128 10261 20217 55004





000
SAUS43 KMQT 302354
MTRP59
METAR KP59 302351Z AUTO 34014G25KT 22/13 A2983 RMK AO1 PK WND
35027/2335 SLP093 T02170128 10261 20217 55004





000
SAUS43 KMQT 302303 COR
MTRP53
METAR KP53 302256Z AUTO 01007KT 23/14 A2986 RMK AO1 SLP110 T02330144





000
SAUS43 KMQT 302303 COR
MTRP53
METAR KP53 302256Z AUTO 01007KT 23/14 A2986 RMK AO1 SLP110 T02330144





000
SAUS43 KMQT 302252
MTRP59
METAR KP59 302251Z AUTO 31008G16KT 280V350 26/12 A2982 RMK AO1
SLP088 T02560122





000
SAUS43 KMQT 302204 COR
MTRP53
METAR KP53 302156Z AUTO 35006KT 23/14 A2987 RMK AO1 SLP113 T02330144





000
SAUS43 KMQT 302152
MTRP59
METAR KP59 302151Z AUTO 32009G19KT 26/11 A2982 RMK AO1 PK WND
35027/2053 SLP090 T02560111





000
SAUS43 KMQT 302104 COR
MTRP53
METAR KP53 302056Z AUTO 01008KT 23/14 A2987 RMK AO1 SLP114 T02330144
50000





000
SAUS43 KMQT 302052
MTRP59
METAR KP59 302051Z AUTO 34013G27KT 26/12 A2984 RMK AO1 PK WND
35028/2001 SLP095 T02560117 58001





000
SAUS43 KMQT 302052
MTRP59
METAR KP59 302051Z AUTO 34013G27KT 26/12 A2984 RMK AO1 PK WND
35028/2001 SLP095 T02560117 58001





000
SAUS43 KMQT 302004 COR
MTRP53
METAR KP53 301956Z AUTO 35013G20KT 23/13 A2988 RMK AO1 SLP115
T02280133





000
SAUS43 KMQT 302004 COR
MTRP53
METAR KP53 301956Z AUTO 35013G20KT 23/13 A2988 RMK AO1 SLP115
T02280133





000
SAUS43 KMQT 301954
MTRP59
METAR KP59 301951Z AUTO 32009G19KT 250V340 26/12 A2984 RMK AO1
SLP097 T02560122





000
SAUS43 KMQT 301904 COR
MTRP53
METAR KP53 301856Z AUTO 34013KT 22/14 A2988 RMK AO1 SLP116 T02220139





000
SAUS43 KMQT 301854
MTRP59
METAR KP59 301851Z AUTO 33014G23KT 24/11 A2984 RMK AO1 PK WND
35026/1802 SLP097 T02390111





000
SAUS43 KMQT 301854
MTRP59
METAR KP59 301851Z AUTO 33014G23KT 24/11 A2984 RMK AO1 PK WND
35026/1802 SLP097 T02390111





000
SAUS43 KMQT 301804 COR
MTRP53
METAR KP53 301756Z AUTO 34014G22KT 22/13 A2987 RMK AO1 SLP114
T02220128 10228 20211 51014





000
SAUS43 KMQT 301804 COR
MTRP53
METAR KP53 301756Z AUTO 34014G22KT 22/13 A2987 RMK AO1 SLP114
T02220128 10228 20211 51014





000
SAUS43 KMQT 301754
MTRP59
METAR KP59 301751Z AUTO 34017G25KT 22/11 A2984 RMK AO1 PK WND
34027/1711 SLP097 T02220111 10222 20167 51015





000
SAUS43 KMQT 301704 COR
MTRP53
METAR KP53 301656Z AUTO 34013G20KT 22/13 A2987 RMK AO1 PK WND
31031/1559 SLP112 T02170133





000
SAUS43 KMQT 301653
MTRP59
METAR KP59 301651Z AUTO 34019G29KT 21/12 A2983 RMK AO1 PK WND
34029/1618 SLP093 T02110117





000
SAUS43 KMQT 301603 COR
MTRP53
METAR KP53 301556Z AUTO 32022G31KT 22/13 A2985 RMK AO1 PK WND
32031/1555 SLP106 T02170133





000
SAUS43 KMQT 301554
MTRP59
METAR KP59 301551Z AUTO 34018G27KT 20/12 A2982 RMK AO1 PK WND
33029/1515 SLP089 T02000122





000
SAUS43 KMQT 301503 COR
MTRP53
METAR KP53 301456Z AUTO 34014G26KT 22/13 A2983 RMK AO1 PK WND
31026/1448 SLP098 T02220133 53017





000
SAUS43 KMQT 301454
MTRP59
METAR KP59 301451Z AUTO 34017G25KT 20/12 A2980 RMK AO1 PK WND
33027/1356 SLP083 T02000117 51015





000
SAUS43 KMQT 301454
MTRP59
METAR KP59 301451Z AUTO 34017G25KT 20/12 A2980 RMK AO1 PK WND
33027/1356 SLP083 T02000117 51015





000
SAUS43 KMQT 301403 COR
MTRP53
METAR KP53 301356Z AUTO 32016G23KT 23/13 A2981 RMK AO1 SLP091
T02280128





000
SAUS43 KMQT 301354
MTRP59
METAR KP59 301351Z AUTO 34015G27KT 17/11 A2980 RMK AO1 PK WND
35030/1334 SLP084 T01720111





000
SAUS43 KMQT 301257
MTRP53
METAR KP53 301256Z AUTO 29009KT 23/12 A2979 RMK AO1 SLP084 T02280122





000
SAUS43 KMQT 301253
MTRP59
METAR KP59 301251Z AUTO 34014G29KT 18/11 A2978 RMK AO1 PK WND
33029/1244 SLP076 T01780111





000
SAUS43 KMQT 301253
MTRP59
METAR KP59 301251Z AUTO 34014G29KT 18/11 A2978 RMK AO1 PK WND
33029/1244 SLP076 T01780111





000
SAUS43 KMQT 301157
MTRP53
METAR KP53 301156Z AUTO VRB03KT 21/12 A2978 RMK AO1 SLP082 T02110122
10233 20189 53009





000
SAUS43 KMQT 301157
MTRP53
METAR KP53 301156Z AUTO VRB03KT 21/12 A2978 RMK AO1 SLP082 T02110122
10233 20189 53009





000
SAUS43 KMQT 301154
MTRP59
METAR KP59 301151Z AUTO 34022G32KT 19/11 A2975 RMK AO1 PK WND
34032/1145 SLP068 7//// T01890111 10217 20189 53021





000
SAUS43 KMQT 301154
MTRP59
METAR KP59 301151Z AUTO 34022G32KT 19/11 A2975 RMK AO1 PK WND
34032/1145 SLP068 7//// T01890111 10217 20189 53021





000
SAUS43 KMQT 301057
MTRP53
METAR KP53 301056Z AUTO 20006KT 19/12 A2976 RMK AO1 SLP076 T01940122





000
SAUS43 KMQT 301054
MTRP59
METAR KP59 301051Z AUTO 32014G27KT 280V350 20/11 A2972 RMK AO1 PK
WND 33030/1019 SLP057 T02000111





000
SAUS43 KMQT 300957
MTRP53
METAR KP53 300956Z AUTO 20006KT 19/12 A2975 RMK AO1 SLP073 T01940122





000
SAUS43 KMQT 300952
MTRP59
METAR KP59 300951Z AUTO 32012G25KT 21/12 A2970 RMK AO1 PK WND
30032/0934 SLP049 T02110117





000
SAUS43 KMQT 300857
MTRP53
METAR KP53 300856Z AUTO VRB06KT 21/12 A2975 RMK AO1 SLP073 T02060122
55003





000
SAUS43 KMQT 300854
MTRP59
METAR KP59 300851Z AUTO 33010G24KT 290V360 21/11 A2969 RMK AO1 PK
WND 33030/0841 SLP046 T02110111 51001





000
SAUS43 KMQT 300758
MTRP53
METAR KP53 300756Z AUTO 22009KT 21/13 A2975 RMK AO1 SLP072 T02110128





000
SAUS43 KMQT 300753
MTRP59
METAR KP59 300751Z AUTO 31014G30KT 21/12 A2969 RMK AO1 PK WND
31030/0751 SLP045 T02060117





000
SAUS43 KMQT 300753
MTRP59
METAR KP59 300751Z AUTO 31014G30KT 21/12 A2969 RMK AO1 PK WND
31030/0751 SLP045 T02060117





000
SAUS43 KMQT 300657
MTRP53
METAR KP53 300656Z AUTO 22008KT 22/13 A2975 RMK AO1 SLP071 T02220128





000
SAUS43 KMQT 300657
MTRP53
METAR KP53 300656Z AUTO 22008KT 22/13 A2975 RMK AO1 SLP071 T02220128





000
SAUS43 KMQT 300653
MTRP59
METAR KP59 300651Z AUTO 32013G25KT 21/12 A2969 RMK AO1 PK WND
34031/0630 SLPNO T02060122





000
SAUS43 KMQT 300558
MTRP53
METAR KP53 300556Z AUTO 21007KT 180V250 23/13 A2976 RMK AO1 SLP074
T02330133 10244 20222 56012





000
SAUS43 KMQT 300558
MTRP53
METAR KP53 300556Z AUTO 21007KT 180V250 23/13 A2976 RMK AO1 SLP074
T02330133 10244 20222 56012





000
SAUS43 KMQT 300553
MTRP59
METAR KP59 300551Z AUTO 32009G22KT 260V350 21/12 A2969 RMK AO1 PK
WND 34027/0511 SLP044 T02110117 10239 20211 55006





000
SAUS43 KMQT 300553
MTRP59
METAR KP59 300551Z AUTO 32009G22KT 260V350 21/12 A2969 RMK AO1 PK
WND 34027/0511 SLP044 T02110117 10239 20211 55006





000
SAUS43 KMQT 300457
MTRP53
METAR KP53 300456Z AUTO 20006KT 23/13 A2977 RMK AO1 SLP076 T02330133
403060206





000
SAUS43 KMQT 300453
MTRP59
METAR KP59 300451Z AUTO 33014G27KT 290V360 23/11 A2968 RMK AO1 PK
WND 34027/0449 SLP043 T02330111 402500222





    US Dept of Commerce
    National Oceanic and Atmospheric Administration
    National Weather Service
    1325 East West Highway
    Silver Spring, MD 20910
    Page Author: NWS Internet Services Team
Disclaimer
Information Quality
Credits
Glossary
Privacy Policy
Freedom of Information Act (FOIA)
About Us
Career Opportunities